createdAt,value
2019-01-23T00:00:16.117Z,0
2019-01-23T00:01:24.225Z,0
2019-01-23T00:02:32.212Z,0
2019-01-23T00:03:40.272Z,0
2019-01-23T00:04:48.329Z,0
2019-01-23T00:05:56.377Z,0
2019-01-23T00:07:04.401Z,0
2019-01-23T00:08:12.490Z,0
2019-01-23T00:09:20.552Z,0
2019-01-23T00:10:28.591Z,0
2019-01-23T00:11:36.630Z,0
2019-01-23T00:12:44.691Z,0
2019-01-23T00:13:52.761Z,0
2019-01-23T00:15:00.803Z,0
2019-01-23T00:16:08.862Z,0
2019-01-23T00:17:16.941Z,0
2019-01-23T00:18:24.961Z,0
2019-01-23T00:19:33.014Z,0
2019-01-23T00:20:41.068Z,0
2019-01-23T00:21:49.137Z,0
2019-01-23T00:22:57.180Z,0
2019-01-23T00:24:05.245Z,0
2019-01-23T00:25:13.276Z,0
2019-01-23T00:26:21.340Z,0
2019-01-23T00:27:29.397Z,0
2019-01-23T00:28:42.290Z,0
2019-01-23T00:29:45.506Z,0
2019-01-23T00:30:53.564Z,0
2019-01-23T00:32:01.626Z,0
2019-01-23T00:33:09.666Z,0
2019-01-23T00:34:17.717Z,0
2019-01-23T00:35:25.780Z,0
2019-01-23T00:36:33.827Z,0
2019-01-23T00:37:41.891Z,0
2019-01-23T00:38:49.941Z,0
2019-01-23T00:39:57.990Z,0
2019-01-23T00:41:06.077Z,0
2019-01-23T00:42:14.066Z,0
2019-01-23T00:43:22.174Z,0
2019-01-23T00:44:30.208Z,0
2019-01-23T00:45:38.275Z,0
2019-01-23T00:46:46.327Z,0
2019-01-23T00:47:54.338Z,0
2019-01-23T00:49:02.422Z,0
2019-01-23T00:50:10.492Z,0
2019-01-23T00:51:18.536Z,0
2019-01-23T00:52:26.689Z,0
2019-01-23T00:53:34.606Z,0
2019-01-23T00:54:42.689Z,0
2019-01-23T00:55:50.736Z,0
2019-01-23T00:56:58.786Z,0
2019-01-23T00:58:06.855Z,0
2019-01-23T00:59:14.907Z,0
2019-01-23T01:00:22.961Z,0
2019-01-23T01:01:31.015Z,0
2019-01-23T01:02:39.069Z,0
2019-01-23T01:03:47.128Z,0
2019-01-23T01:04:55.173Z,0
2019-01-23T01:06:03.231Z,0
2019-01-23T01:07:11.283Z,0
2019-01-23T01:08:19.344Z,0
2019-01-23T01:09:27.395Z,0
2019-01-23T01:10:35.444Z,0
2019-01-23T01:11:43.516Z,0
2019-01-23T01:12:51.556Z,0
2019-01-23T01:13:59.589Z,0
2019-01-23T01:15:13.245Z,0
2019-01-23T01:16:15.723Z,0
2019-01-23T01:17:23.777Z,0
2019-01-23T01:18:31.829Z,0
2019-01-23T01:19:39.876Z,0
2019-01-23T01:20:47.943Z,0
2019-01-23T01:21:55.987Z,0
2019-01-23T01:23:04.014Z,0
2019-01-23T01:24:12.082Z,0
2019-01-23T01:25:20.144Z,0
2019-01-23T01:26:28.204Z,0
2019-01-23T01:27:36.247Z,0
2019-01-23T01:28:44.275Z,0
2019-01-23T01:29:52.353Z,0
2019-01-23T01:31:00.420Z,0
2019-01-23T01:32:08.460Z,0
2019-01-23T01:33:16.529Z,0
2019-01-23T01:34:24.579Z,0
2019-01-23T01:35:32.638Z,0
2019-01-23T01:36:40.668Z,0
2019-01-23T01:37:48.737Z,0
2019-01-23T01:38:56.780Z,0
2019-01-23T01:40:04.847Z,0
2019-01-23T01:41:12.904Z,0
2019-01-23T01:42:20.938Z,0
2019-01-23T01:43:29.003Z,0
2019-01-23T01:44:37.058Z,0
2019-01-23T01:45:45.116Z,0
2019-01-23T01:46:53.165Z,0
2019-01-23T01:48:01.219Z,0
2019-01-23T01:49:09.271Z,0
2019-01-23T01:50:17.321Z,0
2019-01-23T01:51:25.425Z,0
2019-01-23T01:52:33.425Z,0
2019-01-23T01:53:41.500Z,0
2019-01-23T01:54:49.544Z,0
2019-01-23T01:55:57.605Z,0
2019-01-23T01:57:05.655Z,0
2019-01-23T01:58:13.786Z,0
2019-01-23T01:59:21.745Z,0
2019-01-23T02:00:29.810Z,0
2019-01-23T02:01:37.854Z,0
2019-01-23T02:02:45.922Z,0
2019-01-23T02:03:53.945Z,0
2019-01-23T02:05:02.021Z,0
2019-01-23T02:06:10.076Z,0
2019-01-23T02:07:18.131Z,0
2019-01-23T02:08:26.184Z,0
2019-01-23T02:09:35.502Z,0
2019-01-23T02:10:42.297Z,0
2019-01-23T02:11:50.394Z,0
2019-01-23T02:12:58.416Z,0
2019-01-23T02:14:06.472Z,0
2019-01-23T02:15:14.486Z,0
2019-01-23T02:16:22.570Z,0
2019-01-23T02:17:31.113Z,0
2019-01-23T02:18:38.687Z,0
2019-01-23T02:19:46.730Z,0
2019-01-23T02:20:55.498Z,0
2019-01-23T02:22:03.010Z,0
2019-01-23T02:23:10.989Z,0
2019-01-23T02:24:18.933Z,0
2019-01-23T02:25:26.992Z,0
2019-01-23T02:26:35.048Z,0
2019-01-23T02:27:43.090Z,0
2019-01-23T02:28:51.180Z,0
2019-01-23T02:29:59.205Z,0
2019-01-23T02:31:07.272Z,0
2019-01-23T02:32:15.311Z,0
2019-01-23T02:33:23.377Z,0
2019-01-23T02:34:31.419Z,0
2019-01-23T02:35:39.496Z,0
2019-01-23T02:36:47.528Z,0
2019-01-23T02:37:55.576Z,0
2019-01-23T02:39:03.643Z,0
2019-01-23T02:40:11.697Z,0
2019-01-23T02:41:19.746Z,0
2019-01-23T02:42:27.808Z,0
2019-01-23T02:43:35.852Z,0
2019-01-23T02:44:43.882Z,0
2019-01-23T02:45:51.955Z,0
2019-01-23T02:47:00.053Z,0
2019-01-23T02:48:08.073Z,0
2019-01-23T02:49:16.126Z,0
2019-01-23T02:50:24.155Z,0
2019-01-23T02:51:32.232Z,0
2019-01-23T02:52:40.301Z,0
2019-01-23T02:53:48.346Z,0
2019-01-23T02:54:56.389Z,0
2019-01-23T02:56:04.420Z,0
2019-01-23T02:57:12.509Z,0
2019-01-23T02:58:20.553Z,0
2019-01-23T02:59:29.480Z,0
2019-01-23T03:00:36.663Z,0
2019-01-23T03:01:44.707Z,0
2019-01-23T03:02:52.779Z,0
2019-01-23T03:04:00.825Z,0
2019-01-23T03:05:08.908Z,0
2019-01-23T03:06:16.949Z,0
2019-01-23T03:07:24.983Z,0
2019-01-23T03:08:33.043Z,0
2019-01-23T03:09:41.095Z,0
2019-01-23T03:10:49.154Z,0
2019-01-23T03:11:57.201Z,0
2019-01-23T03:13:05.249Z,0
2019-01-23T03:14:13.310Z,0
2019-01-23T03:15:21.376Z,0
2019-01-23T03:16:29.413Z,0
2019-01-23T03:17:37.478Z,0
2019-01-23T03:18:45.520Z,0
2019-01-23T03:19:53.579Z,0
2019-01-23T03:21:01.637Z,0
2019-01-23T03:22:09.692Z,0
2019-01-23T03:23:17.738Z,0
2019-01-23T03:24:25.807Z,0
2019-01-23T03:25:33.831Z,0
2019-01-23T03:26:41.899Z,0
2019-01-23T03:27:49.952Z,0
2019-01-23T03:28:58.007Z,0
2019-01-23T03:30:06.099Z,0
2019-01-23T03:31:14.097Z,0
2019-01-23T03:32:22.171Z,0
2019-01-23T03:33:30.232Z,0
2019-01-23T03:34:38.279Z,0
2019-01-23T03:35:46.337Z,0
2019-01-23T03:36:54.366Z,0
2019-01-23T03:38:02.449Z,0
2019-01-23T03:39:10.495Z,0
2019-01-23T03:40:18.555Z,0
2019-01-23T03:41:26.605Z,0
2019-01-23T03:42:34.640Z,0
2019-01-23T03:43:42.720Z,0
2019-01-23T03:44:50.769Z,0
2019-01-23T03:45:58.831Z,0
2019-01-23T03:47:06.889Z,0
2019-01-23T03:48:14.922Z,0
2019-01-23T03:49:22.994Z,0
2019-01-23T03:50:31.048Z,0
2019-01-23T03:51:39.094Z,0
2019-01-23T03:52:47.143Z,0
2019-01-23T03:53:55.209Z,0
2019-01-23T03:55:03.267Z,0
2019-01-23T03:56:11.321Z,0
2019-01-23T03:57:19.402Z,0
2019-01-23T03:58:27.421Z,0
2019-01-23T03:59:35.482Z,0
2019-01-23T04:00:43.547Z,0
2019-01-23T04:01:51.574Z,0
2019-01-23T04:02:59.643Z,0
2019-01-23T04:04:07.699Z,0
2019-01-23T04:05:15.762Z,0
2019-01-23T04:06:23.786Z,0
2019-01-23T04:07:31.853Z,0
2019-01-23T04:08:39.910Z,0
2019-01-23T04:09:47.967Z,0
2019-01-23T04:10:56.013Z,0
2019-01-23T04:12:04.036Z,0
2019-01-23T04:13:12.132Z,0
2019-01-23T04:14:20.181Z,0
2019-01-23T04:15:28.242Z,0
2019-01-23T04:16:36.279Z,0
2019-01-23T04:17:44.303Z,0
2019-01-23T04:18:52.403Z,0
2019-01-23T04:20:00.438Z,0
2019-01-23T04:21:08.501Z,0
2019-01-23T04:22:16.557Z,0
2019-01-23T04:23:24.576Z,0
2019-01-23T04:24:32.663Z,0
2019-01-23T04:25:40.703Z,0
2019-01-23T04:26:48.776Z,0
2019-01-23T04:27:56.822Z,0
2019-01-23T04:29:04.873Z,0
2019-01-23T04:30:12.929Z,0
2019-01-23T04:31:20.982Z,0
2019-01-23T04:32:29.039Z,0
2019-01-23T04:33:37.092Z,0
2019-01-23T04:34:45.142Z,0
2019-01-23T04:35:53.232Z,0
2019-01-23T04:37:01.263Z,0
2019-01-23T04:38:09.304Z,0
2019-01-23T04:39:17.363Z,0
2019-01-23T04:40:25.426Z,0
2019-01-23T04:41:33.469Z,0
2019-01-23T04:42:41.520Z,0
2019-01-23T04:43:49.578Z,0
2019-01-23T04:44:57.632Z,0
2019-01-23T04:46:05.694Z,0
2019-01-23T04:47:13.723Z,0
2019-01-23T04:48:21.792Z,0
2019-01-23T04:49:29.856Z,0
2019-01-23T04:50:38.445Z,0
2019-01-23T04:51:45.951Z,0
2019-01-23T04:52:53.983Z,0
2019-01-23T04:54:02.055Z,0
2019-01-23T04:55:10.123Z,0
2019-01-23T04:56:18.176Z,0
2019-01-23T04:57:26.227Z,0
2019-01-23T04:58:34.250Z,0
2019-01-23T04:59:46.758Z,0
2019-01-23T05:00:50.389Z,0
2019-01-23T05:01:58.422Z,0
2019-01-23T05:03:06.496Z,0
2019-01-23T05:04:14.519Z,0
2019-01-23T05:05:22.601Z,0
2019-01-23T05:06:30.651Z,0
2019-01-23T05:07:38.696Z,0
2019-01-23T05:08:46.758Z,0
2019-01-23T05:09:54.792Z,0
2019-01-23T05:11:02.906Z,0
2019-01-23T05:12:10.917Z,0
2019-01-23T05:13:18.978Z,0
2019-01-23T05:14:27.026Z,0
2019-01-23T05:15:35.083Z,0
2019-01-23T05:16:43.137Z,0
2019-01-23T05:17:51.190Z,0
2019-01-23T05:18:59.255Z,0
2019-01-23T05:20:07.303Z,0
2019-01-23T05:21:16.277Z,0
2019-01-23T05:22:23.405Z,0
2019-01-23T05:23:31.453Z,0
2019-01-23T05:24:39.507Z,0
2019-01-23T05:25:47.564Z,0
2019-01-23T05:26:55.621Z,0
2019-01-23T05:28:03.698Z,0
2019-01-23T05:29:11.726Z,0
2019-01-23T05:30:19.795Z,0
2019-01-23T05:31:27.853Z,0
2019-01-23T05:32:35.898Z,0
2019-01-23T05:33:43.924Z,0
2019-01-23T05:34:52.004Z,0
2019-01-23T05:36:00.044Z,0
2019-01-23T05:37:08.105Z,0
2019-01-23T05:38:16.642Z,0
2019-01-23T05:39:24.184Z,0
2019-01-23T05:40:32.283Z,0
2019-01-23T05:41:40.316Z,0
2019-01-23T05:42:48.373Z,0
2019-01-23T05:43:56.434Z,0
2019-01-23T05:45:04.481Z,0
2019-01-23T05:46:12.525Z,0
2019-01-23T05:47:21.018Z,0
2019-01-23T05:48:28.699Z,0
2019-01-23T05:49:36.704Z,0
2019-01-23T05:50:44.723Z,0
2019-01-23T05:51:53.414Z,0
2019-01-23T05:53:02.894Z,0
2019-01-23T05:54:09.524Z,0
2019-01-23T05:55:17.651Z,0
2019-01-23T05:56:25.126Z,0
2019-01-23T05:57:34.805Z,0
2019-01-23T05:58:41.827Z,0
2019-01-23T05:59:49.817Z,0
2019-01-23T06:00:57.690Z,0
2019-01-23T06:02:07.197Z,0
2019-01-23T06:03:13.954Z,0
2019-01-23T06:04:22.051Z,0
2019-01-23T06:05:30.087Z,0
2019-01-23T06:06:38.185Z,0
2019-01-23T06:07:46.133Z,0
2019-01-23T06:08:55.233Z,0
2019-01-23T06:10:02.362Z,0
2019-01-23T06:11:12.927Z,0
2019-01-23T06:12:18.246Z,0
2019-01-23T06:13:27.918Z,0
2019-01-23T06:14:34.482Z,0
2019-01-23T06:15:42.556Z,0
2019-01-23T06:16:50.470Z,0
2019-01-23T06:17:58.598Z,0
2019-01-23T06:19:06.725Z,0
2019-01-23T06:20:14.781Z,0
2019-01-23T06:21:22.758Z,0
2019-01-23T06:22:30.930Z,0
2019-01-23T06:23:38.948Z,0
2019-01-23T06:24:46.845Z,0
2019-01-23T06:25:54.826Z,0
2019-01-23T06:27:03.024Z,0
2019-01-23T06:28:12.687Z,0
2019-01-23T06:29:19.236Z,0
2019-01-23T06:30:27.250Z,0
2019-01-23T06:31:35.310Z,0
2019-01-23T06:32:43.344Z,0
2019-01-23T06:33:51.454Z,0
2019-01-23T06:34:59.784Z,0
2019-01-23T06:36:07.554Z,0
2019-01-23T06:37:15.857Z,0
2019-01-23T06:38:23.631Z,0
2019-01-23T06:39:31.609Z,0
2019-01-23T06:40:39.723Z,0
2019-01-23T06:41:47.737Z,0
2019-01-23T06:42:55.883Z,0
2019-01-23T06:44:03.786Z,0
2019-01-23T06:45:11.987Z,0
2019-01-23T06:46:19.882Z,0
2019-01-23T06:47:28.107Z,0
2019-01-23T06:48:36.015Z,0
2019-01-23T06:49:44.174Z,0
2019-01-23T06:50:52.213Z,0
2019-01-23T06:52:00.279Z,0
2019-01-23T06:53:13.900Z,0
2019-01-23T06:54:16.388Z,0
2019-01-23T06:55:24.396Z,0
2019-01-23T06:56:32.502Z,0
2019-01-23T06:57:42.462Z,0
2019-01-23T06:58:48.611Z,5
2019-01-23T06:59:56.710Z,5
2019-01-23T07:01:04.719Z,5
2019-01-23T07:02:12.791Z,5
2019-01-23T07:03:20.846Z,5
2019-01-23T07:04:28.867Z,5
2019-01-23T07:05:36.930Z,5
2019-01-23T07:06:44.989Z,10
2019-01-23T07:07:53.034Z,10
2019-01-23T07:09:01.048Z,10
2019-01-23T07:10:09.127Z,10
2019-01-23T07:11:17.176Z,10
2019-01-23T07:12:25.692Z,15
2019-01-23T07:13:33.325Z,15
2019-01-23T07:14:42.427Z,15
2019-01-23T07:15:49.416Z,15
2019-01-23T07:16:57.465Z,20
2019-01-23T07:18:06.538Z,20
2019-01-23T07:19:13.595Z,20
2019-01-23T07:20:21.662Z,20
2019-01-23T07:21:30.729Z,20
2019-01-23T07:22:37.722Z,25
2019-01-23T07:23:45.823Z,25
2019-01-23T07:24:53.804Z,25
2019-01-23T07:26:01.717Z,25
2019-01-23T07:27:09.815Z,30
2019-01-23T07:28:17.926Z,30
2019-01-23T07:29:25.940Z,30
2019-01-23T07:30:33.978Z,35
2019-01-23T07:31:42.171Z,35
2019-01-23T07:32:50.161Z,40
2019-01-23T07:33:58.206Z,40
2019-01-23T07:35:06.270Z,45
2019-01-23T07:36:14.302Z,50
2019-01-23T07:37:22.430Z,50
2019-01-23T07:38:30.360Z,55
2019-01-23T07:39:38.456Z,55
2019-01-23T07:40:46.457Z,55
2019-01-23T07:41:54.515Z,55
2019-01-23T07:43:02.647Z,55
2019-01-23T07:44:10.681Z,60
2019-01-23T07:45:18.737Z,65
2019-01-23T07:46:26.851Z,65
2019-01-23T07:47:34.895Z,65
2019-01-23T07:48:42.902Z,65
2019-01-23T07:49:50.972Z,70
2019-01-23T07:50:58.982Z,75
2019-01-23T07:52:07.087Z,75
2019-01-23T07:53:15.168Z,75
2019-01-23T07:54:23.002Z,75
2019-01-23T07:55:31.233Z,75
2019-01-23T07:56:39.383Z,70
2019-01-23T07:57:47.204Z,75
2019-01-23T07:58:55.358Z,80
2019-01-23T08:00:03.408Z,80
2019-01-23T08:01:11.571Z,80
2019-01-23T08:02:19.648Z,85
2019-01-23T08:03:27.932Z,85
2019-01-23T08:04:37.372Z,85
2019-01-23T08:05:43.718Z,95
2019-01-23T08:06:51.666Z,90
2019-01-23T08:07:59.812Z,90
2019-01-23T08:09:07.956Z,100
2019-01-23T08:10:15.892Z,95
2019-01-23T08:11:23.942Z,95
2019-01-23T08:12:31.466Z,95
2019-01-23T08:13:39.559Z,100
2019-01-23T08:14:47.597Z,100
2019-01-23T08:15:55.625Z,105
2019-01-23T08:17:03.682Z,110
2019-01-23T08:18:11.753Z,115
2019-01-23T08:19:19.885Z,125
2019-01-23T08:20:27.853Z,130
2019-01-23T08:21:35.902Z,130
2019-01-23T08:22:43.940Z,130
2019-01-23T08:23:52.005Z,125
2019-01-23T08:25:00.091Z,130
2019-01-23T08:26:08.122Z,135
2019-01-23T08:27:16.157Z,130
2019-01-23T08:28:24.204Z,140
2019-01-23T08:29:32.283Z,155
2019-01-23T08:30:40.945Z,170
2019-01-23T08:31:48.390Z,175
2019-01-23T08:32:56.485Z,165
2019-01-23T08:34:04.466Z,160
2019-01-23T08:35:12.584Z,140
2019-01-23T08:36:20.602Z,135
2019-01-23T08:37:28.657Z,140
2019-01-23T08:38:36.714Z,140
2019-01-23T08:39:44.763Z,145
2019-01-23T08:40:52.819Z,155
2019-01-23T08:42:00.895Z,165
2019-01-23T08:43:08.942Z,170
2019-01-23T08:44:16.995Z,175
2019-01-23T08:45:25.039Z,185
2019-01-23T08:46:33.106Z,195
2019-01-23T08:47:41.157Z,205
2019-01-23T08:48:49.192Z,220
2019-01-23T08:49:57.257Z,200
2019-01-23T08:51:05.313Z,190
2019-01-23T08:52:13.382Z,180
2019-01-23T08:53:21.464Z,180
2019-01-23T08:54:29.485Z,185
2019-01-23T08:55:37.528Z,185
2019-01-23T08:56:45.592Z,185
2019-01-23T08:57:53.654Z,185
2019-01-23T08:59:01.715Z,185
2019-01-23T09:00:09.764Z,185
2019-01-23T09:01:17.807Z,185
2019-01-23T09:02:25.865Z,185
2019-01-23T09:03:33.898Z,185
2019-01-23T09:04:41.981Z,205
2019-01-23T09:05:50.039Z,220
2019-01-23T09:06:58.092Z,205
2019-01-23T09:08:06.148Z,215
2019-01-23T09:09:14.181Z,220
2019-01-23T09:10:22.251Z,225
2019-01-23T09:11:30.293Z,220
2019-01-23T09:12:38.369Z,225
2019-01-23T09:13:46.447Z,240
2019-01-23T09:14:54.435Z,235
2019-01-23T09:16:02.551Z,230
2019-01-23T09:17:10.583Z,215
2019-01-23T09:18:18.641Z,205
2019-01-23T09:19:26.706Z,200
2019-01-23T09:20:34.731Z,200
2019-01-23T09:21:42.807Z,200
2019-01-23T09:22:50.863Z,200
2019-01-23T09:23:58.894Z,205
2019-01-23T09:25:06.981Z,210
2019-01-23T09:26:15.015Z,195
2019-01-23T09:27:23.085Z,190
2019-01-23T09:28:31.144Z,210
2019-01-23T09:29:39.188Z,210
2019-01-23T09:30:52.524Z,205
2019-01-23T09:31:55.343Z,210
2019-01-23T09:33:03.353Z,220
2019-01-23T09:34:11.423Z,235
2019-01-23T09:35:19.471Z,240
2019-01-23T09:36:27.549Z,245
2019-01-23T09:37:35.585Z,255
2019-01-23T09:38:43.632Z,255
2019-01-23T09:39:51.690Z,260
2019-01-23T09:40:59.752Z,260
2019-01-23T09:42:07.817Z,255
2019-01-23T09:43:15.869Z,250
2019-01-23T09:44:23.900Z,245
2019-01-23T09:45:31.982Z,245
2019-01-23T09:46:40.038Z,245
2019-01-23T09:47:48.096Z,250
2019-01-23T09:48:56.180Z,255
2019-01-23T09:50:04.190Z,260
2019-01-23T09:51:12.254Z,260
2019-01-23T09:52:20.298Z,265
2019-01-23T09:53:28.375Z,260
2019-01-23T09:54:36.427Z,255
2019-01-23T09:55:44.465Z,265
2019-01-23T09:56:52.560Z,280
2019-01-23T09:58:00.604Z,285
2019-01-23T09:59:08.983Z,305
2019-01-23T10:00:16.714Z,315
2019-01-23T10:01:24.748Z,300
2019-01-23T10:02:32.834Z,280
2019-01-23T10:03:40.883Z,270
2019-01-23T10:04:48.931Z,265
2019-01-23T10:05:56.983Z,255
2019-01-23T10:07:05.058Z,255
2019-01-23T10:08:13.102Z,265
2019-01-23T10:09:21.165Z,270
2019-01-23T10:10:29.209Z,285
2019-01-23T10:11:37.287Z,280
2019-01-23T10:12:45.336Z,275
2019-01-23T10:13:53.394Z,275
2019-01-23T10:15:01.447Z,280
2019-01-23T10:16:09.504Z,250
2019-01-23T10:17:17.566Z,280
2019-01-23T10:18:25.607Z,290
2019-01-23T10:19:33.660Z,290
2019-01-23T10:20:41.726Z,305
2019-01-23T10:21:49.788Z,300
2019-01-23T10:22:57.851Z,280
2019-01-23T10:24:05.905Z,260
2019-01-23T10:25:13.949Z,255
2019-01-23T10:26:22.074Z,260
2019-01-23T10:27:30.119Z,275
2019-01-23T10:28:38.137Z,290
2019-01-23T10:29:46.197Z,300
2019-01-23T10:30:54.265Z,310
2019-01-23T10:32:02.313Z,310
2019-01-23T10:33:10.385Z,305
2019-01-23T10:34:18.438Z,305
2019-01-23T10:35:26.513Z,320
2019-01-23T10:36:34.533Z,340
2019-01-23T10:37:42.605Z,345
2019-01-23T10:38:50.690Z,340
2019-01-23T10:39:58.754Z,335
2019-01-23T10:41:06.794Z,310
2019-01-23T10:42:14.824Z,305
2019-01-23T10:43:22.899Z,305
2019-01-23T10:44:30.970Z,305
2019-01-23T10:45:39.022Z,305
2019-01-23T10:46:47.079Z,300
2019-01-23T10:47:56.098Z,260
2019-01-23T10:49:03.201Z,270
2019-01-23T10:50:11.238Z,295
2019-01-23T10:51:19.306Z,275
2019-01-23T10:52:27.377Z,245
2019-01-23T10:53:35.421Z,270
2019-01-23T10:54:43.484Z,285
2019-01-23T10:55:51.534Z,270
2019-01-23T10:56:59.592Z,300
2019-01-23T10:58:07.669Z,330
2019-01-23T10:59:15.710Z,340
2019-01-23T11:00:23.764Z,345
2019-01-23T11:01:31.810Z,340
2019-01-23T11:02:39.891Z,335
2019-01-23T11:03:47.940Z,320
2019-01-23T11:04:55.989Z,325
2019-01-23T11:06:04.044Z,345
2019-01-23T11:07:12.109Z,365
2019-01-23T11:08:20.178Z,345
2019-01-23T11:09:28.281Z,320
2019-01-23T11:10:36.292Z,340
2019-01-23T11:11:44.325Z,335
2019-01-23T11:12:52.395Z,320
2019-01-23T11:14:00.461Z,350
2019-01-23T11:15:08.535Z,345
2019-01-23T11:16:16.576Z,345
2019-01-23T11:17:24.609Z,345
2019-01-23T11:18:32.700Z,340
2019-01-23T11:19:40.762Z,335
2019-01-23T11:20:48.830Z,330
2019-01-23T11:21:56.869Z,335
2019-01-23T11:23:04.915Z,345
2019-01-23T11:24:12.991Z,365
2019-01-23T11:25:21.057Z,395
2019-01-23T11:26:29.095Z,390
2019-01-23T11:27:37.157Z,375
2019-01-23T11:28:45.229Z,350
2019-01-23T11:29:53.276Z,345
2019-01-23T11:31:01.335Z,345
2019-01-23T11:32:09.396Z,295
2019-01-23T11:33:17.514Z,310
2019-01-23T11:34:25.525Z,240
2019-01-23T11:35:33.569Z,235
2019-01-23T11:36:41.629Z,245
2019-01-23T11:37:49.677Z,345
2019-01-23T11:38:57.761Z,350
2019-01-23T11:40:05.807Z,365
2019-01-23T11:41:13.862Z,370
2019-01-23T11:42:21.929Z,350
2019-01-23T11:43:29.985Z,360
2019-01-23T11:44:38.040Z,355
2019-01-23T11:45:46.106Z,345
2019-01-23T11:46:54.135Z,325
2019-01-23T11:48:02.219Z,340
2019-01-23T11:49:10.271Z,345
2019-01-23T11:50:21.950Z,330
2019-01-23T11:51:26.435Z,290
2019-01-23T11:52:34.429Z,280
2019-01-23T11:53:42.506Z,275
2019-01-23T11:54:50.569Z,270
2019-01-23T11:55:58.630Z,260
2019-01-23T11:57:06.675Z,260
2019-01-23T11:58:14.718Z,260
2019-01-23T11:59:22.793Z,270
2019-01-23T12:00:30.851Z,270
2019-01-23T12:01:38.911Z,275
2019-01-23T12:02:46.990Z,280
2019-01-23T12:03:55.054Z,275
2019-01-23T12:05:03.112Z,290
2019-01-23T12:06:11.175Z,285
2019-01-23T12:07:19.207Z,290
2019-01-23T12:08:27.304Z,295
2019-01-23T12:09:35.336Z,290
2019-01-23T12:10:43.414Z,285
2019-01-23T12:11:51.457Z,310
2019-01-23T12:12:59.500Z,285
2019-01-23T12:14:07.574Z,295
2019-01-23T12:15:15.657Z,315
2019-01-23T12:16:23.685Z,340
2019-01-23T12:17:31.759Z,345
2019-01-23T12:18:39.799Z,365
2019-01-23T12:19:47.871Z,335
2019-01-23T12:20:55.916Z,290
2019-01-23T12:22:03.948Z,295
2019-01-23T12:23:12.043Z,295
2019-01-23T12:24:20.104Z,310
2019-01-23T12:25:28.156Z,305
2019-01-23T12:26:36.215Z,285
2019-01-23T12:27:44.297Z,270
2019-01-23T12:28:52.335Z,250
2019-01-23T12:30:00.424Z,250
2019-01-23T12:31:08.441Z,230
2019-01-23T12:32:16.503Z,250
2019-01-23T12:33:24.544Z,285
2019-01-23T12:34:32.617Z,300
2019-01-23T12:35:40.697Z,315
2019-01-23T12:36:48.737Z,330
2019-01-23T12:37:56.812Z,350
2019-01-23T12:39:04.850Z,350
2019-01-23T12:40:12.902Z,335
2019-01-23T12:41:20.987Z,325
2019-01-23T12:42:29.025Z,325
2019-01-23T12:43:37.099Z,320
2019-01-23T12:44:45.156Z,320
2019-01-23T12:45:53.199Z,315
2019-01-23T12:47:01.269Z,315
2019-01-23T12:48:09.325Z,325
2019-01-23T12:49:17.384Z,335
2019-01-23T12:50:25.447Z,330
2019-01-23T12:51:33.560Z,335
2019-01-23T12:52:41.552Z,340
2019-01-23T12:53:49.708Z,335
2019-01-23T12:54:57.710Z,320
2019-01-23T12:56:05.735Z,315
2019-01-23T12:57:13.795Z,290
2019-01-23T12:58:21.857Z,285
2019-01-23T12:59:29.930Z,285
2019-01-23T13:00:37.984Z,285
2019-01-23T13:01:46.986Z,285
2019-01-23T13:02:54.076Z,300
2019-01-23T13:04:02.168Z,295
2019-01-23T13:05:10.222Z,295
2019-01-23T13:06:18.299Z,285
2019-01-23T13:07:26.340Z,265
2019-01-23T13:08:34.373Z,260
2019-01-23T13:09:42.467Z,265
2019-01-23T13:10:50.525Z,270
2019-01-23T13:11:58.587Z,265
2019-01-23T13:13:06.631Z,265
2019-01-23T13:14:14.673Z,265
2019-01-23T13:15:22.757Z,260
2019-01-23T13:16:30.805Z,260
2019-01-23T13:17:38.853Z,260
2019-01-23T13:18:46.929Z,260
2019-01-23T13:19:54.969Z,265
2019-01-23T13:21:03.038Z,265
2019-01-23T13:22:11.104Z,285
2019-01-23T13:23:19.726Z,280
2019-01-23T13:24:27.214Z,280
2019-01-23T13:25:35.260Z,275
2019-01-23T13:26:43.330Z,270
2019-01-23T13:27:51.398Z,275
2019-01-23T13:28:59.457Z,255
2019-01-23T13:30:07.502Z,260
2019-01-23T13:31:15.559Z,265
2019-01-23T13:32:23.622Z,255
2019-01-23T13:33:31.691Z,250
2019-01-23T13:34:39.747Z,250
2019-01-23T13:35:47.797Z,235
2019-01-23T13:36:55.866Z,245
2019-01-23T13:38:03.897Z,245
2019-01-23T13:39:11.964Z,230
2019-01-23T13:40:20.032Z,230
2019-01-23T13:41:28.092Z,225
2019-01-23T13:42:36.160Z,225
2019-01-23T13:43:44.217Z,215
2019-01-23T13:44:52.261Z,210
2019-01-23T13:46:00.358Z,210
2019-01-23T13:47:08.377Z,210
2019-01-23T13:48:16.445Z,210
2019-01-23T13:49:24.474Z,215
2019-01-23T13:50:32.567Z,210
2019-01-23T13:51:40.611Z,190
2019-01-23T13:52:48.675Z,175
2019-01-23T13:53:56.737Z,165
2019-01-23T13:55:04.795Z,160
2019-01-23T13:56:12.858Z,165
2019-01-23T13:57:20.901Z,175
2019-01-23T13:58:28.953Z,175
2019-01-23T13:59:37.019Z,170
2019-01-23T14:00:45.085Z,175
2019-01-23T14:01:56.300Z,170
2019-01-23T14:03:01.204Z,160
2019-01-23T14:04:09.266Z,150
2019-01-23T14:05:17.302Z,145
2019-01-23T14:06:25.370Z,140
2019-01-23T14:07:33.440Z,135
2019-01-23T14:08:41.499Z,130
2019-01-23T14:09:49.542Z,130
2019-01-23T14:10:57.609Z,130
2019-01-23T14:12:05.653Z,130
2019-01-23T14:13:13.713Z,130
2019-01-23T14:14:21.767Z,125
2019-01-23T14:15:29.825Z,125
2019-01-23T14:16:37.884Z,120
2019-01-23T14:17:45.950Z,115
2019-01-23T14:18:53.965Z,115
2019-01-23T14:20:02.066Z,110
2019-01-23T14:21:10.124Z,105
2019-01-23T14:22:18.179Z,105
2019-01-23T14:23:26.210Z,100
2019-01-23T14:24:34.266Z,95
2019-01-23T14:25:42.346Z,95
2019-01-23T14:26:50.402Z,95
2019-01-23T14:27:58.453Z,100
2019-01-23T14:29:06.519Z,100
2019-01-23T14:30:14.539Z,100
2019-01-23T14:31:22.638Z,95
2019-01-23T14:32:30.689Z,95
2019-01-23T14:33:38.750Z,95
2019-01-23T14:34:46.803Z,95
2019-01-23T14:35:54.860Z,100
2019-01-23T14:37:02.917Z,95
2019-01-23T14:38:10.970Z,95
2019-01-23T14:39:19.025Z,95
2019-01-23T14:40:27.079Z,95
2019-01-23T14:41:35.183Z,95
2019-01-23T14:42:43.195Z,90
2019-01-23T14:43:51.290Z,90
2019-01-23T14:44:59.312Z,90
2019-01-23T14:46:07.373Z,90
2019-01-23T14:47:15.415Z,90
2019-01-23T14:48:23.486Z,85
2019-01-23T14:49:31.549Z,85
2019-01-23T14:50:39.889Z,80
2019-01-23T14:51:47.647Z,80
2019-01-23T14:52:55.704Z,75
2019-01-23T14:54:03.767Z,75
2019-01-23T14:55:11.829Z,70
2019-01-23T14:56:19.861Z,65
2019-01-23T14:57:27.927Z,65
2019-01-23T14:58:36.005Z,60
2019-01-23T14:59:44.050Z,60
2019-01-23T15:00:52.077Z,65
2019-01-23T15:02:00.142Z,65
2019-01-23T15:03:08.247Z,65
2019-01-23T15:04:16.273Z,65
2019-01-23T15:05:24.298Z,65
2019-01-23T15:06:32.388Z,65
2019-01-23T15:07:40.457Z,60
2019-01-23T15:08:48.512Z,60
2019-01-23T15:09:56.559Z,60
2019-01-23T15:11:04.586Z,60
2019-01-23T15:12:12.676Z,60
2019-01-23T15:13:20.726Z,65
2019-01-23T15:14:28.777Z,65
2019-01-23T15:15:36.831Z,65
2019-01-23T15:16:44.898Z,65
2019-01-23T15:17:52.939Z,65
2019-01-23T15:19:01.014Z,65
2019-01-23T15:20:09.066Z,65
2019-01-23T15:21:17.116Z,65
2019-01-23T15:22:25.146Z,65
2019-01-23T15:23:33.211Z,65
2019-01-23T15:24:41.276Z,65
2019-01-23T15:25:49.344Z,65
2019-01-23T15:26:57.391Z,65
2019-01-23T15:28:05.453Z,60
2019-01-23T15:29:13.512Z,60
2019-01-23T15:30:21.564Z,55
2019-01-23T15:31:29.618Z,55
2019-01-23T15:32:37.680Z,50
2019-01-23T15:33:45.714Z,50
2019-01-23T15:34:53.771Z,50
2019-01-23T15:36:01.849Z,45
2019-01-23T15:37:09.900Z,45
2019-01-23T15:38:17.953Z,40
2019-01-23T15:39:26.012Z,35
2019-01-23T15:40:34.034Z,35
2019-01-23T15:41:42.121Z,35
2019-01-23T15:42:50.183Z,35
2019-01-23T15:43:58.238Z,35
2019-01-23T15:45:06.297Z,30
2019-01-23T15:46:14.311Z,30
2019-01-23T15:47:22.405Z,30
2019-01-23T15:48:30.457Z,25
2019-01-23T15:49:38.511Z,25
2019-01-23T15:50:46.564Z,25
2019-01-23T15:51:54.610Z,25
2019-01-23T15:53:02.698Z,20
2019-01-23T15:54:10.750Z,20
2019-01-23T15:55:18.793Z,20
2019-01-23T15:56:26.862Z,15
2019-01-23T15:57:34.915Z,15
2019-01-23T15:58:42.969Z,15
2019-01-23T15:59:51.027Z,15
2019-01-23T16:00:59.071Z,10
2019-01-23T16:02:07.155Z,10
2019-01-23T16:03:15.194Z,10
2019-01-23T16:04:23.246Z,10
2019-01-23T16:05:31.300Z,5
2019-01-23T16:06:39.347Z,5
2019-01-23T16:07:47.417Z,5
2019-01-23T16:08:55.462Z,5
2019-01-23T16:10:03.508Z,5
2019-01-23T16:11:11.579Z,5
2019-01-23T16:12:19.634Z,0